Time;durP1;ratioP1;P1;durP2;ratioP2;P2;SDS_P1;SDS_P2;PMS_P1;PMS_P2;Temp;Humidity;BMP_temperature;BMP_pressure;BME280_temperature;BME280_humidity;BME280_pressure;Samples;Min_cycle;Max_cycle;Signal;HPM_P1;HPM_P2
2023/01/04 00:02:20;;;;;;;0.40;0.40;;;;;;;-145.63;100.00;61273.97;4781047;30;20028;-67
2023/01/04 00:04:45;;;;;;;1.60;0.57;;;;;;;-145.63;100.00;61273.97;4796126;29;20054;-66
2023/01/04 00:07:11;;;;;;;0.55;0.55;;;;;;;-145.63;100.00;61273.97;4781293;30;20032;-66
2023/01/04 00:09:36;;;;;;;0.40;0.40;;;;;;;-145.63;100.00;61273.97;4782266;30;20081;-66
2023/01/04 00:12:02;;;;;;;0.43;0.43;;;;;;;-145.63;100.00;61273.97;4781317;30;20323;-66
2023/01/04 00:14:28;;;;;;;0.82;0.55;;;;;;;-145.63;100.00;61273.97;4795841;30;20139;-66
2023/01/04 00:16:54;;;;;;;0.52;0.52;;;;;;;-145.63;100.00;61273.97;4777093;30;20063;-67
2023/01/04 00:19:20;;;;;;;0.32;0.32;;;;;;;-145.63;100.00;61273.97;4757935;30;20038;-66
2023/01/04 00:21:45;;;;;;;0.60;0.50;;;;;;;-145.63;100.00;61273.97;4781750;30;20032;-66
2023/01/04 00:24:14;;;;;;;0.70;0.50;;;;;;;-145.63;100.00;61273.97;4798284;29;20323;-65
2023/01/04 00:26:39;;;;;;;2.20;0.65;;;;;;;-145.63;100.00;61273.97;4781881;30;20042;-65
2023/01/04 00:29:06;;;;;;;0.88;0.60;;;;;;;-145.63;100.00;61273.97;4782079;30;20027;-65
2023/01/04 00:31:33;;;;;;;0.88;0.70;;;;;;;-145.63;100.00;61273.97;4781799;30;20085;-66
2023/01/04 00:34:01;;;;;;;1.10;0.98;;;;;;;-145.63;100.00;61273.97;4781842;30;20063;-66
2023/01/04 00:36:27;;;;;;;1.52;1.42;;;;;;;-145.63;100.00;61273.97;4781686;30;20563;-66
2023/01/04 00:39:05;;;;;;;1.88;1.60;;;;;;;-145.63;100.00;61273.97;4781919;30;20042;-66
2023/01/04 00:41:38;;;;;;;2.13;1.88;;;;;;;-145.63;100.00;61273.97;4763976;30;20051;-66
2023/01/04 00:44:07;;;;;;;2.30;1.77;;;;;;;-145.63;100.00;61273.97;4778356;30;20035;-65
2023/01/04 00:46:34;;;;;;;2.40;2.20;;;;;;;-145.63;100.00;61273.97;4781331;30;20042;-64
2023/01/04 00:49:00;;;;;;;2.58;2.22;;;;;;;-145.63;100.00;61273.97;4781508;30;20078;-65
2023/01/04 00:51:27;;;;;;;2.10;1.90;;;;;;;-145.63;100.00;61273.97;4781195;30;20040;-65
2023/01/04 00:53:53;;;;;;;2.95;2.30;;;;;;;-145.63;100.00;61273.97;4790897;30;20035;-65
2023/01/04 00:56:19;;;;;;;3.42;2.45;;;;;;;-145.63;100.00;61273.97;4799265;30;20027;-66
2023/01/04 00:58:44;;;;;;;3.38;2.28;;;;;;;-145.63;100.00;61273.97;4786446;29;20181;-65
2023/01/04 01:01:10;;;;;;;3.45;2.47;;;;;;;-145.63;100.00;61273.97;4781372;30;20032;-65
2023/01/04 01:03:35;;;;;;;3.70;2.80;;;;;;;-145.63;100.00;61273.97;4781245;30;20080;-67
2023/01/04 01:06:03;;;;;;;3.42;2.70;;;;;;;-145.63;100.00;61273.97;4781095;30;20041;-66
2023/01/04 01:08:31;;;;;;;2.92;2.45;;;;;;;-145.63;100.00;61273.97;4780875;30;20043;-66
2023/01/04 01:11:08;;;;;;;2.85;2.55;;;;;;;-145.63;100.00;61273.97;4779337;30;20256;-66
2023/01/04 01:13:35;;;;;;;2.38;2.17;;;;;;;-145.63;100.00;61273.97;4781068;30;20321;-65
2023/01/04 01:16:03;;;;;;;3.38;2.38;;;;;;;-145.63;100.00;61273.97;4780938;30;20081;-66
2023/01/04 01:18:29;;;;;;;3.35;2.70;;;;;;;-145.63;100.00;61273.97;4780936;30;20031;-66
2023/01/04 01:20:54;;;;;;;2.97;2.53;;;;;;;-145.63;100.00;61273.97;4781112;30;20054;-66
2023/01/04 01:23:20;;;;;;;4.00;2.85;;;;;;;-145.63;100.00;61273.97;4792843;30;20053;-66
2023/01/04 01:25:46;;;;;;;4.10;2.95;;;;;;;-145.63;100.00;61273.97;4785901;29;20081;-65
2023/01/04 01:28:11;;;;;;;3.22;2.67;;;;;;;-145.63;100.00;61273.97;4780873;30;20224;-66
2023/01/04 01:30:41;;;;;;;2.78;2.30;;;;;;;-145.63;100.00;61273.97;4780597;30;20165;-66
2023/01/04 01:33:08;;;;;;;3.85;2.50;;;;;;;-145.63;100.00;61273.97;4780927;30;20042;-66
2023/01/04 01:35:35;;;;;;;3.33;2.67;;;;;;;-145.63;100.00;61273.97;4764635;30;20054;-66
2023/01/04 01:38:01;;;;;;;3.05;2.60;;;;;;;-145.63;100.00;61273.97;4780656;30;20074;-66
2023/01/04 01:40:27;;;;;;;3.47;2.83;;;;;;;-145.63;100.00;61273.97;4780448;30;20094;-68
2023/01/04 01:42:53;;;;;;;3.85;2.25;;;;;;;-145.63;100.00;61273.97;4780168;30;20040;-66
2023/01/04 01:45:29;;;;;;;3.70;3.08;;;;;;;-145.63;100.00;61273.97;4780507;30;20063;-67
2023/01/04 01:48:02;;;;;;;4.50;2.50;;;;;;;-145.63;100.00;61273.97;4780530;30;20046;-66
2023/01/04 01:50:41;;;;;;;3.78;2.25;;;;;;;-145.63;100.00;61273.97;4780292;30;20047;-66
2023/01/04 01:53:09;;;;;;;3.40;2.60;;;;;;;-145.63;100.00;61273.97;4784230;30;20027;-67
2023/01/04 01:55:35;;;;;;;3.38;2.83;;;;;;;-145.63;100.00;61273.97;4797176;30;20281;-67
2023/01/04 01:58:03;;;;;;;3.78;2.83;;;;;;;-145.63;100.00;61273.97;4791088;29;20295;-66
2023/01/04 02:00:30;;;;;;;3.80;2.50;;;;;;;-145.63;100.00;61273.97;4780119;30;20043;-66
2023/01/04 02:03:23;;;;;;;3.80;2.63;;;;;;;-145.63;100.00;61273.97;4780102;30;20328;-66
2023/01/04 02:05:51;;;;;;;3.35;2.67;;;;;;;-145.63;100.00;61273.97;4761076;30;20229;-65
2023/01/04 02:08:21;;;;;;;3.22;2.92;;;;;;;-145.63;100.00;61273.97;4778372;30;20043;-67
2023/01/04 02:10:47;;;;;;;3.63;2.72;;;;;;;-145.63;100.00;61273.97;4780206;30;20047;-65
2023/01/04 02:13:17;;;;;;;2.60;2.20;;;;;;;-145.63;100.00;61273.97;4780606;30;20036;-67
2023/01/04 02:16:21;;;;;;;2.92;2.20;;;;;;;-145.63;100.00;61273.97;4780011;30;20292;-65
2023/01/04 02:19:28;;;;;;;4.20;2.47;;;;;;;-145.63;100.00;61273.97;4771964;30;20044;-66
2023/01/04 02:22:06;;;;;;;3.75;2.40;;;;;;;-145.63;100.00;61273.97;4780843;30;20052;-66
2023/01/04 02:25:09;;;;;;;7.55;3.00;;;;;;;-145.63;100.00;61273.97;4794663;29;20126;-67
2023/01/04 02:27:35;;;;;;;3.38;2.38;;;;;;;-145.63;100.00;61273.97;4778829;30;20044;-67
2023/01/04 02:30:16;;;;;;;4.00;2.65;;;;;;;-145.63;100.00;61273.97;4780048;30;20283;-68
2023/01/04 02:32:51;;;;;;;4.60;2.83;;;;;;;-145.63;100.00;61273.97;4762378;30;20138;-66
2023/01/04 02:35:29;;;;;;;3.85;2.65;;;;;;;-145.63;100.00;61273.97;4778432;30;20035;-66
2023/01/04 02:38:02;;;;;;;3.45;2.80;;;;;;;-145.63;100.00;61273.97;4780152;30;20328;-67
2023/01/04 02:40:41;;;;;;;4.13;3.08;;;;;;;-145.63;100.00;61273.97;4779841;30;20036;-67
2023/01/04 02:46:27;;;;;;;3.45;3.03;;;;;;;-145.63;100.00;61273.97;4779229;30;20047;-64
2023/01/04 02:51:37;;;;;;;4.68;3.22;;;;;;;-145.63;100.00;61273.97;4779412;30;20316;-67
2023/01/04 02:54:07;;;;;;;3.80;3.00;;;;;;;-145.63;100.00;61273.97;4790302;30;20038;-67
2023/01/04 02:57:00;;;;;;;4.10;3.45;;;;;;;-145.63;100.00;61273.97;4797582;29;20098;-67
2023/01/04 02:59:29;;;;;;;5.45;3.67;;;;;;;-145.63;100.00;61273.97;4780590;30;20055;-68
2023/01/04 03:08:26;;;;;;;4.88;3.50;;;;;;;-145.63;100.00;61273.97;4778827;30;20225;-66
2023/01/04 03:11:04;;;;;;;5.88;3.95;;;;;;;-145.63;100.00;61273.97;4793464;30;20032;-66
2023/01/04 03:13:36;;;;;;;4.70;3.75;;;;;;;-145.63;100.00;61273.97;4793258;30;20047;-65
2023/01/04 03:16:11;;;;;;;4.68;4.03;;;;;;;-145.63;100.00;61273.97;4793386;29;20035;-66
2023/01/04 03:18:42;;;;;;;4.43;3.58;;;;;;;-145.63;100.00;61273.97;4779485;30;20040;-66
2023/01/04 03:21:10;;;;;;;4.18;3.45;;;;;;;-145.63;100.00;61273.97;4779727;30;20055;-66
2023/01/04 03:35:37;;;;;;;4.63;3.47;;;;;;;-145.63;100.00;61273.97;4776272;30;20039;-67
2023/01/04 03:50:57;;;;;;;3.35;2.75;;;;;;;-145.63;100.00;61273.97;4761453;30;20096;-66
2023/01/04 03:53:26;;;;;;;3.20;2.70;;;;;;;-145.63;100.00;61273.97;4783353;30;20058;-65
2023/01/04 03:55:53;;;;;;;4.35;2.38;;;;;;;-145.63;100.00;61273.97;4780303;30;20047;-66
2023/01/04 03:58:20;;;;;;;4.18;2.60;;;;;;;-145.63;100.00;61273.97;4796087;30;20054;-66
2023/01/04 04:00:46;;;;;;;2.40;2.20;;;;;;;-145.63;100.00;61273.97;4782113;30;20077;-66
2023/01/04 04:03:12;;;;;;;2.38;2.08;;;;;;;-145.63;100.00;61273.97;4796370;29;20036;-66
2023/01/04 04:08:28;;;;;;;2.78;2.03;;;;;;;-145.63;100.00;61273.97;4780506;30;20036;-66
2023/01/04 04:10:56;;;;;;;4.63;2.50;;;;;;;-145.63;100.00;61273.97;4782247;30;20115;-66
2023/01/04 04:13:23;;;;;;;2.53;2.13;;;;;;;-145.63;100.00;61273.97;4782082;30;20091;-67
2023/01/04 04:15:51;;;;;;;2.90;2.10;;;;;;;-145.63;100.00;61273.97;4782340;30;20031;-65
2023/01/04 04:18:17;;;;;;;2.42;2.00;;;;;;;-145.63;100.00;61273.97;4781931;30;20035;-66
2023/01/04 04:20:42;;;;;;;2.45;2.22;;;;;;;-145.63;100.00;61273.97;4780488;30;20042;-67
2023/01/04 04:23:08;;;;;;;2.42;2.10;;;;;;;-145.63;100.00;61273.97;4792192;30;20035;-67
2023/01/04 04:25:33;;;;;;;4.22;2.35;;;;;;;-145.63;100.00;61273.97;4803684;29;20032;-67
2023/01/04 04:27:59;;;;;;;3.90;2.40;;;;;;;-145.63;100.00;61273.97;4781893;30;20047;-66
2023/01/04 04:30:24;;;;;;;3.65;2.50;;;;;;;-145.63;100.00;61273.97;4781704;30;20035;-66
2023/01/04 04:32:50;;;;;;;3.15;2.38;;;;;;;-145.63;100.00;61273.97;4780971;30;20217;-66
2023/01/04 04:35:16;;;;;;;2.67;2.28;;;;;;;-145.63;100.00;61273.97;4781758;30;20100;-67
2023/01/04 04:37:41;;;;;;;2.88;2.38;;;;;;;-145.63;100.00;61273.97;4781777;30;20038;-67
2023/01/04 04:41:37;;;;;;;3.40;2.85;;;;;;;-145.63;100.00;61273.97;4781796;30;20052;-66
2023/01/04 04:42:53;;;;;;;3.38;2.30;;;;;;;-145.63;100.00;61273.97;4781791;30;20035;-66
2023/01/04 04:45:18;;;;;;;4.25;2.45;;;;;;;-145.63;100.00;61273.97;4781604;30;20112;-65
2023/01/04 04:47:44;;;;;;;2.85;2.30;;;;;;;-145.63;100.00;61273.97;4781948;30;20035;-66
2023/01/04 04:50:10;;;;;;;3.03;2.40;;;;;;;-145.63;100.00;61273.97;4780353;30;20355;-67
2023/01/04 04:52:35;;;;;;;2.20;2.00;;;;;;;-145.63;100.00;61273.97;4795299;29;20048;-66
2023/01/04 04:55:01;;;;;;;3.10;2.03;;;;;;;-145.63;100.00;61273.97;4797333;30;20035;-65
2023/01/04 04:57:26;;;;;;;3.08;2.13;;;;;;;-145.63;100.00;61273.97;4774010;30;20039;-66
2023/01/04 04:59:52;;;;;;;3.38;2.22;;;;;;;-145.63;100.00;61273.97;4780297;30;20027;-67
2023/01/04 05:02:17;;;;;;;2.28;2.00;;;;;;;-145.63;100.00;61273.97;4781439;30;20032;-68
2023/01/04 05:04:43;;;;;;;2.75;2.47;;;;;;;-145.63;100.00;61273.97;4780895;30;20333;-67
2023/01/04 05:07:08;;;;;;;2.42;1.90;;;;;;;-145.63;100.00;61273.97;4780905;30;20039;-67
2023/01/04 05:09:34;;;;;;;2.15;1.95;;;;;;;-145.63;100.00;61273.97;4780095;30;20074;-67
2023/01/04 05:14:44;;;;;;;1.95;1.75;;;;;;;-145.63;100.00;61273.97;4780387;30;20107;-66
2023/01/04 05:17:09;;;;;;;3.78;1.73;;;;;;;-145.63;100.00;61273.97;4776876;30;20035;-69
2023/01/04 05:19:35;;;;;;;3.63;2.13;;;;;;;-145.63;100.00;61273.97;4782335;30;20043;-67
2023/01/04 05:22:00;;;;;;;2.83;1.80;;;;;;;-145.63;100.00;61273.97;4783031;30;20044;-67
2023/01/04 05:24:26;;;;;;;2.30;1.60;;;;;;;-145.63;100.00;61273.97;4780000;29;20279;-66
2023/01/04 05:26:52;;;;;;;2.30;1.75;;;;;;;-145.63;100.00;61273.97;4779677;30;20027;-67
2023/01/04 05:32:01;;;;;;;2.35;2.03;;;;;;;-145.63;100.00;61273.97;4786673;30;20047;-66
2023/01/04 05:34:27;;;;;;;2.60;2.05;;;;;;;-145.63;100.00;61273.97;4787809;30;20210;-66
2023/01/04 05:36:52;;;;;;;3.13;1.80;;;;;;;-145.63;100.00;61273.97;4810616;29;20327;-67
2023/01/04 05:39:18;;;;;;;1.80;1.60;;;;;;;-145.63;100.00;61273.97;4786068;30;20068;-67
2023/01/04 05:44:28;;;;;;;3.38;1.80;;;;;;;-145.63;100.00;61273.97;4787058;30;20031;-66
2023/01/04 05:46:53;;;;;;;1.90;1.70;;;;;;;-145.63;100.00;61273.97;4782472;30;20371;-66
2023/01/04 05:49:19;;;;;;;1.90;1.70;;;;;;;-145.63;100.00;61273.97;4779425;30;20116;-67
2023/01/04 05:51:45;;;;;;;3.55;1.90;;;;;;;-145.63;100.00;61273.97;4793928;29;20307;-67
2023/01/04 05:54:10;;;;;;;2.75;2.03;;;;;;;-145.63;100.00;61273.97;4784493;30;20050;-65
2023/01/04 05:56:36;;;;;;;2.80;1.83;;;;;;;-145.63;100.00;61273.97;4780271;30;20092;-65
2023/01/04 05:59:01;;;;;;;1.65;1.55;;;;;;;-145.63;100.00;61273.97;4780566;30;20035;-66
2023/01/04 06:01:27;;;;;;;3.58;2.15;;;;;;;-145.63;100.00;61273.97;4780285;30;20028;-66
2023/01/04 06:03:53;;;;;;;2.15;1.77;;;;;;;-145.63;100.00;61273.97;4785405;30;20327;-67
2023/01/04 06:06:18;;;;;;;2.08;1.63;;;;;;;-145.63;100.00;61273.97;4788296;30;20036;-68
2023/01/04 06:08:44;;;;;;;2.35;1.80;;;;;;;-145.63;100.00;61273.97;4788214;30;20027;-67
2023/01/04 06:11:09;;;;;;;3.85;1.80;;;;;;;-145.63;100.00;61273.97;4787115;30;20197;-67
2023/01/04 06:13:35;;;;;;;2.08;1.88;;;;;;;-145.63;100.00;61273.97;4788095;29;20027;-67
2023/01/04 06:16:00;;;;;;;2.72;1.88;;;;;;;-145.63;100.00;61273.97;4788270;30;20228;-66
2023/01/04 06:18:26;;;;;;;2.90;1.88;;;;;;;-145.63;100.00;61273.97;4786125;30;20034;-67
2023/01/04 06:20:51;;;;;;;2.63;2.13;;;;;;;-145.63;100.00;61273.97;4788539;29;20126;-66
2023/01/04 06:23:17;;;;;;;3.67;1.90;;;;;;;-145.63;100.00;61273.97;4787899;30;20092;-65
2023/01/04 06:25:43;;;;;;;2.58;2.05;;;;;;;-145.63;100.00;61273.97;4787231;30;21069;-66
2023/01/04 06:28:08;;;;;;;2.28;1.83;;;;;;;-145.63;100.00;61273.97;4783910;30;20076;-66
2023/01/04 06:30:34;;;;;;;2.88;2.00;;;;;;;-145.63;100.00;61273.97;4788859;30;20034;-65
2023/01/04 06:32:59;;;;;;;3.42;2.00;;;;;;;-145.63;100.00;61273.97;4787480;29;20094;-67
2023/01/04 06:35:25;;;;;;;1.90;1.70;;;;;;;-145.63;100.00;61273.97;4802371;29;20019;-65
2023/01/04 06:37:50;;;;;;;4.95;1.80;;;;;;;-145.63;100.00;61273.97;4789175;29;20245;-67
2023/01/04 06:40:16;;;;;;;1.67;1.58;;;;;;;-145.63;100.00;61273.97;4785229;29;20027;-66
2023/01/04 06:42:45;;;;;;;2.42;2.08;;;;;;;-145.63;100.00;61273.97;4787365;29;20070;-65
2023/01/04 06:45:12;;;;;;;2.65;2.05;;;;;;;-145.63;100.00;61273.97;4777634;30;20047;-67
2023/01/04 06:47:40;;;;;;;2.67;1.70;;;;;;;-145.63;100.00;61273.97;4777349;30;20047;-66
2023/01/04 06:50:06;;;;;;;3.35;1.80;;;;;;;-145.63;100.00;61273.97;4791174;30;20052;-67
2023/01/04 06:52:32;;;;;;;2.10;1.70;;;;;;;-145.63;100.00;61273.97;4777940;30;20047;-68
2023/01/04 06:54:57;;;;;;;2.90;2.00;;;;;;;-145.63;100.00;61273.97;4788117;30;20059;-65
2023/01/04 06:57:23;;;;;;;3.40;2.30;;;;;;;-145.63;100.00;61273.97;4791166;30;20062;-67
2023/01/04 06:59:49;;;;;;;2.13;1.88;;;;;;;-145.63;100.00;61273.97;4767567;30;20050;-67
2023/01/04 07:02:14;;;;;;;2.00;1.75;;;;;;;-145.63;100.00;61273.97;4777365;30;20040;-65
2023/01/04 07:04:41;;;;;;;2.67;2.35;;;;;;;-145.63;100.00;61273.97;4779689;30;20064;-67
2023/01/04 07:07:07;;;;;;;2.33;2.13;;;;;;;-145.63;100.00;61273.97;4778953;30;20032;-67
2023/01/04 07:09:32;;;;;;;2.67;2.13;;;;;;;-145.63;100.00;61273.97;4779587;30;20051;-66
2023/01/04 07:11:58;;;;;;;2.42;2.00;;;;;;;-145.63;100.00;61273.97;4779453;30;20251;-67
2023/01/04 07:14:24;;;;;;;2.95;2.40;;;;;;;-145.63;100.00;61273.97;4778760;30;20046;-66
2023/01/04 07:16:50;;;;;;;2.72;1.90;;;;;;;-145.63;100.00;61273.97;4779368;30;20047;-66
2023/01/04 07:19:15;;;;;;;1.98;1.75;;;;;;;-145.63;100.00;61273.97;4778833;30;20036;-66
2023/01/04 07:21:41;;;;;;;3.70;1.90;;;;;;;-145.63;100.00;61273.97;4778742;30;20328;-66
2023/01/04 07:24:07;;;;;;;2.58;1.88;;;;;;;-145.63;100.00;61273.97;4795640;30;20038;-66
2023/01/04 07:26:33;;;;;;;1.90;1.70;;;;;;;-145.63;100.00;61273.97;4793098;30;20397;-66
2023/01/04 07:29:14;;;;;;;2.03;1.67;;;;;;;-145.63;100.00;61273.97;4780108;30;20043;-66
2023/01/04 07:31:40;;;;;;;2.80;1.98;;;;;;;-145.63;100.00;61273.97;4782758;30;20068;-66
2023/01/04 07:34:06;;;;;;;2.10;1.95;;;;;;;-145.63;100.00;61273.97;4782727;30;20046;-65
2023/01/04 07:36:32;;;;;;;4.57;2.28;;;;;;;-145.63;100.00;61273.97;4782480;30;20043;-65
2023/01/04 07:39:00;;;;;;;2.67;2.10;;;;;;;-145.63;100.00;61273.97;4782327;30;20054;-65
2023/01/04 07:41:26;;;;;;;3.03;1.67;;;;;;;-145.63;100.00;61273.97;4782439;30;20035;-66
2023/01/04 07:43:52;;;;;;;2.97;2.15;;;;;;;-145.63;100.00;61273.97;4782646;30;20039;-65
2023/01/04 07:46:17;;;;;;;2.50;2.22;;;;;;;-145.63;100.00;61273.97;4776826;30;20073;-66
2023/01/04 07:48:43;;;;;;;2.33;2.00;;;;;;;-145.63;100.00;61273.97;4780985;30;20051;-66
2023/01/04 07:51:08;;;;;;;2.60;2.20;;;;;;;-145.63;100.00;61273.97;4781357;30;20032;-65
2023/01/04 07:53:34;;;;;;;2.15;1.88;;;;;;;-145.63;100.00;61273.97;4789500;30;20047;-66
2023/01/04 07:56:00;;;;;;;2.17;1.90;;;;;;;-145.63;100.00;61273.97;4799889;29;20231;-66
2023/01/04 07:58:29;;;;;;;3.00;2.00;;;;;;;-145.63;100.00;61273.97;4793003;29;20208;-65
2023/01/04 08:00:56;;;;;;;2.75;2.20;;;;;;;-145.63;100.00;61273.97;4795359;29;20040;-65
2023/01/04 08:03:22;;;;;;;2.50;2.10;;;;;;;-145.63;100.00;61273.97;4782268;30;20044;-66
2023/01/04 08:05:47;;;;;;;2.67;1.58;;;;;;;-145.63;100.00;61273.97;4782027;30;20038;-67
2023/01/04 08:08:13;;;;;;;2.03;1.77;;;;;;;-145.63;100.00;61273.97;4782247;30;20043;-64
2023/01/04 08:10:38;;;;;;;3.25;2.22;;;;;;;-145.63;100.00;61273.97;4781135;30;20051;-66
2023/01/04 08:13:04;;;;;;;2.55;1.90;;;;;;;-145.63;100.00;61273.97;4782216;30;20224;-67
2023/01/04 08:15:29;;;;;;;3.35;2.10;;;;;;;-145.63;100.00;61273.97;4781286;30;20039;-67
2023/01/04 08:17:56;;;;;;;2.72;2.15;;;;;;;-145.63;100.00;61273.97;4776171;30;20036;-65
2023/01/04 08:20:21;;;;;;;3.80;2.22;;;;;;;-145.63;100.00;61273.97;4795968;30;20039;-65
2023/01/04 08:22:47;;;;;;;4.40;2.30;;;;;;;-145.63;100.00;61273.97;4781828;30;20107;-66
2023/01/04 08:25:12;;;;;;;3.55;2.00;;;;;;;-145.63;100.00;61273.97;4808444;29;20033;-65
2023/01/04 08:27:40;;;;;;;3.25;2.20;;;;;;;-145.63;100.00;61273.97;4782061;30;20028;-66
2023/01/04 08:30:07;;;;;;;4.32;2.22;;;;;;;-145.63;100.00;61273.97;4784162;30;20046;-67
2023/01/04 08:32:32;;;;;;;3.50;2.00;;;;;;;-145.63;100.00;61273.97;4802209;29;20047;-66
2023/01/04 08:34:58;;;;;;;2.67;2.20;;;;;;;-145.63;100.00;61273.97;4788671;30;20054;-66
2023/01/04 08:37:23;;;;;;;2.42;2.22;;;;;;;-145.63;100.00;61273.97;4788613;30;20059;-66
2023/01/04 08:39:49;;;;;;;2.90;2.40;;;;;;;-145.63;100.00;61273.97;4789072;30;20055;-67
2023/01/04 08:42:14;;;;;;;3.42;2.28;;;;;;;-145.63;100.00;61273.97;4789156;29;20039;-67
2023/01/04 08:44:40;;;;;;;2.63;2.42;;;;;;;-145.63;100.00;61273.97;4788380;30;20058;-67
2023/01/04 08:47:06;;;;;;;2.53;2.22;;;;;;;-145.63;100.00;61273.97;4790353;30;20082;-64
2023/01/04 08:49:31;;;;;;;3.53;2.10;;;;;;;-145.63;100.00;61273.97;4786611;30;20070;-64
2023/01/04 08:51:57;;;;;;;2.60;2.35;;;;;;;-145.63;100.00;61273.97;4788893;29;20037;-64
2023/01/04 08:54:23;;;;;;;4.93;2.78;;;;;;;-145.63;100.00;61273.97;4790779;30;20027;-65
2023/01/04 08:56:48;;;;;;;3.15;2.88;;;;;;;-145.63;100.00;61273.97;4788371;29;20031;-63
2023/01/04 08:59:14;;;;;;;4.50;3.05;;;;;;;-145.63;100.00;61273.97;4788617;30;20038;-64
2023/01/04 09:01:40;;;;;;;4.38;3.33;;;;;;;-145.63;100.00;61273.97;4788734;29;20035;-66
2023/01/04 09:04:06;;;;;;;4.28;3.35;;;;;;;-145.63;100.00;61273.97;4785002;30;20066;-64
2023/01/04 09:06:32;;;;;;;3.88;3.40;;;;;;;-145.63;100.00;61273.97;4791380;30;20039;-64
2023/01/04 09:08:58;;;;;;;5.82;4.10;;;;;;;-145.63;100.00;61273.97;4789037;30;20069;-65
2023/01/04 09:11:25;;;;;;;5.43;4.45;;;;;;;-145.63;100.00;61273.97;4786529;30;20123;-65
2023/01/04 09:13:55;;;;;;;5.40;4.72;;;;;;;-145.63;100.00;61273.97;4790152;30;20027;-68
2023/01/04 09:16:22;;;;;;;6.65;5.30;;;;;;;-145.63;100.00;61273.97;4783644;30;20057;-67
2023/01/04 09:18:50;;;;;;;6.22;5.35;;;;;;;-145.63;100.00;61273.97;4788383;30;20362;-69
2023/01/04 09:21:19;;;;;;;7.40;5.53;;;;;;;-145.63;100.00;61273.97;4788158;30;20318;-66
2023/01/04 09:23:45;;;;;;;6.82;5.30;;;;;;;-145.63;100.00;61273.97;4787972;30;20031;-66
2023/01/04 09:26:14;;;;;;;8.85;6.20;;;;;;;-145.63;100.00;61273.97;4783335;29;20115;-66
2023/01/04 09:28:40;;;;;;;8.20;6.10;;;;;;;-145.63;100.00;61273.97;4805293;29;20028;-66
2023/01/04 09:31:10;;;;;;;8.35;5.88;;;;;;;-145.63;100.00;61273.97;4789994;30;20035;-65
2023/01/04 09:33:36;;;;;;;7.97;6.47;;;;;;;-145.63;100.00;61273.97;4782005;30;20035;-66
2023/01/04 09:36:06;;;;;;;7.72;5.93;;;;;;;-145.63;100.00;61273.97;4786671;30;20089;-66
2023/01/04 09:38:33;;;;;;;8.88;5.72;;;;;;;-145.63;100.00;61273.97;4786271;30;20031;-68
2023/01/04 09:41:13;;;;;;;7.45;5.93;;;;;;;-145.63;100.00;61273.97;4784878;29;20096;-67
2023/01/04 09:44:10;;;;;;;7.85;5.88;;;;;;;-145.63;100.00;61273.97;4767858;30;20339;-66
2023/01/04 09:46:50;;;;;;;7.60;5.55;;;;;;;-145.63;100.00;61273.97;4780706;30;20028;-65
2023/01/04 09:49:37;;;;;;;7.28;5.63;;;;;;;-145.63;100.00;61273.97;4792284;30;20047;-66
2023/01/04 09:52:08;;;;;;;6.43;5.20;;;;;;;-145.63;100.00;61273.97;4780577;30;20047;-66
2023/01/04 09:54:45;;;;;;;6.82;5.45;;;;;;;-145.63;100.00;61273.97;4779691;30;20050;-66
2023/01/04 09:57:42;;;;;;;7.05;5.38;;;;;;;-145.63;100.00;61273.97;4786068;30;20081;-67
2023/01/04 10:00:31;;;;;;;7.82;5.50;;;;;;;-145.63;100.00;61273.97;4785895;30;20118;-67
2023/01/04 10:03:09;;;;;;;8.68;5.38;;;;;;;-145.63;100.00;61273.97;4787489;30;20036;-67
2023/01/04 10:05:34;;;;;;;8.00;5.70;;;;;;;-145.63;100.00;61273.97;4785253;30;20054;-67
2023/01/04 10:08:02;;;;;;;6.75;5.22;;;;;;;-145.63;100.00;61273.97;4787641;30;20058;-67
2023/01/04 10:10:53;;;;;;;7.65;5.65;;;;;;;-145.63;100.00;61273.97;4798558;29;20047;-67
2023/01/04 10:14:03;;;;;;;8.48;5.78;;;;;;;-145.63;100.00;61273.97;4783049;30;20039;-67
2023/01/04 10:16:48;;;;;;;8.07;6.15;;;;;;;-145.63;100.00;61273.97;4785355;30;20032;-67
2023/01/04 10:19:17;;;;;;;7.88;5.72;;;;;;;-145.63;100.00;61273.97;4785546;30;20112;-67
2023/01/04 10:21:55;;;;;;;8.02;5.80;;;;;;;-145.63;100.00;61273.97;4787449;29;20077;-67
2023/01/04 10:24:39;;;;;;;8.23;5.93;;;;;;;-145.63;100.00;61273.97;4787645;30;20060;-67
2023/01/04 10:27:16;;;;;;;8.30;6.35;;;;;;;-145.63;100.00;61273.97;4786843;30;20139;-66
2023/01/04 10:29:58;;;;;;;8.85;6.60;;;;;;;-145.63;100.00;61273.97;4786037;30;20327;-67
2023/01/04 10:32:32;;;;;;;;;;;;;;;-145.63;100.00;61273.97;4787522;30;20051;-67
2023/01/04 10:34:58;;;;;;;8.38;5.95;;;;;;;-145.63;100.00;61273.97;4787336;30;20205;-67
2023/01/04 10:37:36;;;;;;;9.38;6.18;;;;;;;-145.63;100.00;61273.97;4787663;30;20030;-67
2023/01/04 10:40:10;;;;;;;9.40;6.68;;;;;;;-145.63;100.00;61273.97;4786314;30;20040;-66
2023/01/04 10:43:00;;;;;;;8.88;6.53;;;;;;;-145.63;100.00;61273.97;4784838;30;20040;-70
2023/01/04 10:46:06;;;;;;;8.70;6.45;;;;;;;-145.63;100.00;61273.97;4792963;29;20035;-67
2023/01/04 10:48:57;;;;;;;8.55;6.65;;;;;;;-145.63;100.00;61273.97;4770980;30;20051;-68
2023/01/04 10:51:36;;;;;;;9.48;6.40;;;;;;;-145.63;100.00;61273.97;4786689;29;20032;-64
2023/01/04 10:54:34;;;;;;;9.23;6.30;;;;;;;-145.63;100.00;61273.97;4788144;30;20039;-67
2023/01/04 10:57:08;;;;;;;9.15;7.22;;;;;;;-145.63;100.00;61273.97;4767764;30;20340;-66
2023/01/04 10:59:43;;;;;;;8.60;6.22;;;;;;;-145.63;100.00;61273.97;4785007;30;20027;-67
2023/01/04 11:02:08;;;;;;;8.55;6.10;;;;;;;-145.63;100.00;61273.97;4787405;30;20114;-68
2023/01/04 11:04:38;;;;;;;9.35;6.65;;;;;;;-145.63;100.00;61273.97;4786843;30;20031;-68
2023/01/04 11:07:15;;;;;;;8.60;6.53;;;;;;;-145.63;100.00;61273.97;4805689;29;20031;-65
2023/01/04 11:09:51;;;;;;;7.57;5.75;;;;;;;-145.63;100.00;61273.97;4789324;30;20039;-65
2023/01/04 11:12:20;;;;;;;8.82;6.10;;;;;;;-145.63;100.00;61273.97;4790622;30;20059;-67
2023/01/04 11:14:47;;;;;;;7.97;5.70;;;;;;;-145.63;100.00;61273.97;4790401;29;20039;-68
2023/01/04 11:17:13;;;;;;;7.82;5.22;;;;;;;-145.63;100.00;61273.97;4790876;30;20073;-69
2023/01/04 11:19:39;;;;;;;6.82;4.90;;;;;;;-145.63;100.00;61273.97;4789034;30;20102;-68
2023/01/04 11:22:14;;;;;;;5.97;4.65;;;;;;;-145.63;100.00;61273.97;4792064;30;20067;-69
2023/01/04 11:24:43;;;;;;;5.70;4.22;;;;;;;-145.63;100.00;61273.97;4787535;30;20035;-71
2023/01/04 11:27:20;;;;;;;5.00;3.95;;;;;;;-145.63;100.00;61273.97;4788738;30;20055;-69
2023/01/04 11:29:56;;;;;;;5.85;3.65;;;;;;;-145.63;100.00;61273.97;4791678;29;20035;-69
2023/01/04 11:32:39;;;;;;;4.88;3.80;;;;;;;-145.63;100.00;61273.97;4789425;30;20055;-70
2023/01/04 11:35:05;;;;;;;6.55;4.47;;;;;;;-145.63;100.00;61273.97;4789784;30;20046;-69
2023/01/04 11:37:41;;;;;;;5.68;3.85;;;;;;;-145.63;100.00;61273.97;4790029;30;20031;-69
2023/01/04 11:40:16;;;;;;;5.63;3.78;;;;;;;-145.63;100.00;61273.97;4790323;30;20088;-70
2023/01/04 11:42:47;;;;;;;6.65;4.20;;;;;;;-145.63;100.00;61273.97;4785301;30;20107;-67
2023/01/04 11:45:26;;;;;;;6.32;4.03;;;;;;;-145.63;100.00;61273.97;4787640;30;20057;-70
2023/01/04 11:47:57;;;;;;;5.40;4.20;;;;;;;-145.63;100.00;61273.97;4801417;29;20071;-69
2023/01/04 11:50:42;;;;;;;8.70;4.63;;;;;;;-145.63;100.00;61273.97;4789359;30;20063;-68
2023/01/04 11:53:33;;;;;;;6.45;4.75;;;;;;;-145.63;100.00;61273.97;4805543;29;20102;-68
2023/01/04 11:56:21;;;;;;;7.35;5.47;;;;;;;-145.63;100.00;61273.97;4790437;30;20032;-69
2023/01/04 11:59:04;;;;;;;7.85;5.00;;;;;;;-145.63;100.00;61273.97;4788636;30;20042;-71
2023/01/04 12:01:33;;;;;;;6.72;5.43;;;;;;;-145.63;100.00;61273.97;4787276;30;20070;-69
2023/01/04 12:03:59;;;;;;;9.07;5.32;;;;;;;-145.63;100.00;61273.97;4802873;29;20335;-69
2023/01/04 12:06:52;;;;;;;6.13;5.00;;;;;;;-145.63;100.00;61273.97;4800728;29;20039;-67
2023/01/04 12:09:20;;;;;;;5.78;4.57;;;;;;;-145.63;100.00;61273.97;4809310;29;20031;-68
2023/01/04 12:11:50;;;;;;;6.05;3.65;;;;;;;-145.63;100.00;61273.97;4798904;29;20329;-68